KMMI/MMI METAR and TAF weather

Enter ICAO airport designator
Station Type Date Time Source
KMMI METAR 2019/10/23 12:35 UTC NOAA

KMMI 231235Z AUTO 00000KT 10SM CLR 03/03 A3020 RMK A01


Station Type Date Time Source
KMMI Decoded METAR 2019/10/23 12:35 UTC NOAA

Station name not available
Oct 23, 2019 - 08:35 AM EDT / 2019.10.23 1235 UTC
Wind: Calm:0
Visibility: 10 mile(s):0
Sky conditions: clear
Temperature: 37 F (3 C)
Dew Point: 37 F (3 C)
Relative Humidity: 100%
Pressure (altimeter): 30.2 in. Hg (1022 hPa)
ob: KMMI 231235Z AUTO 00000KT 10SM CLR 03/03 A3020 RMK A01
cycle: 12

Station Type Date Time Source
KMMI TAF UTC NOAA

Error!

Example: see airport list